LIPY/AOI METAR and TAF weather

Enter ICAO airport designator
Station Type Date Time Source
LIPY METAR 2020/06/05 11:50 UTC NOAA

LIPY 051150Z AUTO 21007KT 9999 BKN100/// 23/10 Q0999


Station Type Date Time Source
LIPY Decoded METAR 2020/06/05 11:50 UTC NOAA

Falconara, Italy (LIPY) 43-37N 013-22E 10M
Jun 05, 2020 - 07:50 AM EDT / 2020.06.05 1150 UTC
Wind: from the SSW (210 degrees) at 8 MPH (7 KT):0
Visibility: greater than 7 mile(s):0
Sky conditions: mostly cloudy
Temperature: 73 F (23 C)
Dew Point: 50 F (10 C)
Relative Humidity: 43%
Pressure (altimeter): 29.50 in. Hg (0999 hPa)
ob: LIPY 051150Z AUTO 21007KT 9999 BKN100/// 23/10 Q0999
cycle: 12

Station Type Date Time Source
LIPY TAF 2020/06/05 12:21 UTC NOAA

TAF LIPY 051100Z 0512/0612 20010KT 9999 SCT030
BECMG 0517/0519 VRB05KT
BECMG 0609/0611 07010KT

Example: see airport list